createdAt,value
2018-03-06T00:00:44.460Z,0.00
2018-03-06T00:01:44.442Z,0.00
2018-03-06T00:02:44.423Z,0.00
2018-03-06T00:03:44.398Z,0.00
2018-03-06T00:04:44.375Z,0.00
2018-03-06T00:05:44.359Z,0.00
2018-03-06T00:06:44.340Z,0.00
2018-03-06T00:07:44.314Z,0.00
2018-03-06T00:08:44.299Z,0.00
2018-03-06T00:09:44.276Z,0.00
2018-03-06T00:10:44.250Z,0.00
2018-03-06T00:11:44.233Z,0.00
2018-03-06T00:12:44.212Z,0.00
2018-03-06T00:13:44.187Z,0.00
2018-03-06T00:14:44.173Z,0.00
2018-03-06T00:15:44.150Z,0.00
2018-03-06T00:16:44.125Z,0.00
2018-03-06T00:17:44.106Z,0.00
2018-03-06T00:18:44.090Z,0.00
2018-03-06T00:19:44.064Z,0.00
2018-03-06T00:20:44.045Z,0.00
2018-03-06T00:21:44.061Z,0.00
2018-03-06T00:22:43.997Z,0.00
2018-03-06T00:23:44.019Z,0.00
2018-03-06T00:24:43.964Z,0.00
2018-03-06T00:25:43.939Z,0.00
2018-03-06T00:26:43.920Z,0.00
2018-03-06T00:27:43.893Z,0.00
2018-03-06T00:28:43.879Z,0.00
2018-03-06T00:29:43.852Z,0.00
2018-03-06T00:30:43.833Z,0.00
2018-03-06T00:31:43.811Z,0.00
2018-03-06T00:32:43.791Z,0.00
2018-03-06T00:33:43.772Z,0.00
2018-03-06T00:34:43.749Z,0.00
2018-03-06T00:35:43.733Z,0.00
2018-03-06T00:36:43.704Z,0.00
2018-03-06T00:37:43.684Z,0.00
2018-03-06T00:38:43.678Z,0.00
2018-03-06T00:39:43.643Z,0.00
2018-03-06T00:40:43.627Z,0.00
2018-03-06T00:41:43.627Z,0.00
2018-03-06T00:42:43.585Z,0.00
2018-03-06T00:43:43.566Z,0.00
2018-03-06T00:44:43.538Z,0.00
2018-03-06T00:45:43.514Z,0.00
2018-03-06T00:46:43.499Z,0.00
2018-03-06T00:47:43.487Z,0.00
2018-03-06T00:48:43.489Z,0.00
2018-03-06T00:49:43.438Z,0.00
2018-03-06T00:50:43.412Z,0.00
2018-03-06T00:51:43.419Z,0.00
2018-03-06T00:52:43.380Z,0.00
2018-03-06T00:53:43.361Z,0.00
2018-03-06T00:54:43.326Z,0.00
2018-03-06T00:55:43.311Z,0.00
2018-03-06T00:56:43.293Z,0.00
2018-03-06T00:57:43.271Z,0.00
2018-03-06T00:58:43.253Z,0.00
2018-03-06T00:59:43.221Z,0.00
2018-03-06T01:00:43.208Z,0.00
2018-03-06T01:01:43.198Z,0.00
2018-03-06T01:02:43.161Z,0.00
2018-03-06T01:03:43.140Z,0.00
2018-03-06T01:04:43.118Z,0.00
2018-03-06T01:05:43.110Z,0.00
2018-03-06T01:06:43.074Z,0.00
2018-03-06T01:07:43.063Z,0.00
2018-03-06T01:08:43.038Z,0.00
2018-03-06T01:09:43.013Z,0.00
2018-03-06T01:10:42.998Z,0.00
2018-03-06T01:11:42.969Z,0.00
2018-03-06T01:12:42.950Z,0.00
2018-03-06T01:13:42.928Z,0.00
2018-03-06T01:14:42.912Z,0.00
2018-03-06T01:15:42.902Z,0.00
2018-03-06T01:16:42.868Z,0.00
2018-03-06T01:17:42.862Z,0.00
2018-03-06T01:18:42.829Z,0.00
2018-03-06T01:19:42.800Z,0.00
2018-03-06T01:20:42.788Z,0.00
2018-03-06T01:21:42.772Z,0.00
2018-03-06T01:22:42.740Z,0.00
2018-03-06T01:23:42.717Z,0.00
2018-03-06T01:24:42.703Z,0.00
2018-03-06T01:25:42.680Z,0.00
2018-03-06T01:26:42.664Z,0.00
2018-03-06T01:27:42.633Z,0.00
2018-03-06T01:28:42.632Z,0.00
2018-03-06T01:29:42.598Z,0.00
2018-03-06T01:30:42.568Z,0.00
2018-03-06T01:31:42.556Z,0.00
2018-03-06T01:32:42.529Z,0.00
2018-03-06T01:33:42.506Z,0.00
2018-03-06T01:34:42.487Z,0.00
2018-03-06T01:35:42.461Z,0.00
2018-03-06T01:36:42.444Z,0.00
2018-03-06T01:37:42.420Z,0.00
2018-03-06T01:38:42.407Z,0.00
2018-03-06T01:39:42.384Z,0.00
2018-03-06T01:40:42.365Z,0.00
2018-03-06T01:41:42.335Z,0.00
2018-03-06T01:42:42.320Z,0.00
2018-03-06T01:43:42.303Z,0.00
2018-03-06T01:44:42.278Z,0.00
2018-03-06T01:45:42.258Z,0.00
2018-03-06T01:46:42.242Z,0.00
2018-03-06T01:47:42.214Z,0.00
2018-03-06T01:48:42.190Z,0.00
2018-03-06T01:49:42.175Z,0.00
2018-03-06T01:50:42.146Z,0.00
2018-03-06T01:51:42.140Z,0.00
2018-03-06T01:52:42.100Z,0.00
2018-03-06T01:53:42.088Z,0.00
2018-03-06T01:54:42.062Z,0.00
2018-03-06T01:55:42.042Z,0.00
2018-03-06T01:56:42.020Z,0.00
2018-03-06T01:57:42.001Z,0.00
2018-03-06T01:58:41.982Z,0.00
2018-03-06T01:59:41.953Z,0.00
2018-03-06T02:00:41.931Z,0.00
2018-03-06T02:01:41.937Z,0.00
2018-03-06T02:02:41.892Z,0.00
2018-03-06T02:03:41.873Z,0.00
2018-03-06T02:04:41.844Z,0.00
2018-03-06T02:05:41.831Z,0.00
2018-03-06T02:06:41.805Z,0.00
2018-03-06T02:07:41.793Z,0.00
2018-03-06T02:08:41.761Z,0.00
2018-03-06T02:09:41.739Z,0.00
2018-03-06T02:10:41.722Z,0.00
2018-03-06T02:11:41.716Z,0.00
2018-03-06T02:12:41.674Z,0.00
2018-03-06T02:13:41.655Z,0.00
2018-03-06T02:14:41.677Z,0.00
2018-03-06T02:15:41.613Z,0.00
2018-03-06T02:16:41.597Z,0.00
2018-03-06T02:17:41.578Z,0.00
2018-03-06T02:18:41.553Z,0.00
2018-03-06T02:19:41.530Z,0.00
2018-03-06T02:20:41.542Z,0.00
2018-03-06T02:21:41.517Z,0.00
2018-03-06T02:22:41.469Z,0.00
2018-03-06T02:23:41.443Z,0.00
2018-03-06T02:24:41.428Z,0.00
2018-03-06T02:25:41.401Z,0.00
2018-03-06T02:26:41.383Z,0.00
2018-03-06T02:27:41.363Z,0.00
2018-03-06T02:28:41.359Z,0.00
2018-03-06T02:29:41.318Z,0.00
2018-03-06T02:30:41.294Z,0.00
2018-03-06T02:31:41.281Z,0.00
2018-03-06T02:32:41.255Z,0.00
2018-03-06T02:33:41.234Z,0.00
2018-03-06T02:34:41.211Z,0.00
2018-03-06T02:35:41.192Z,0.00
2018-03-06T02:36:41.170Z,0.00
2018-03-06T02:37:41.147Z,0.00
2018-03-06T02:38:41.131Z,0.00
2018-03-06T02:39:41.100Z,0.00
2018-03-06T02:40:41.077Z,0.00
2018-03-06T02:41:41.064Z,0.00
2018-03-06T02:42:41.042Z,0.00
2018-03-06T02:43:41.012Z,0.00
2018-03-06T02:44:40.990Z,0.00
2018-03-06T02:45:40.972Z,0.00
2018-03-06T02:46:40.949Z,0.00
2018-03-06T02:47:40.943Z,0.00
2018-03-06T02:48:40.908Z,0.00
2018-03-06T02:49:40.895Z,0.00
2018-03-06T02:50:40.870Z,0.00
2018-03-06T02:51:40.847Z,0.00
2018-03-06T02:52:40.839Z,0.00
2018-03-06T02:53:40.805Z,0.00
2018-03-06T02:54:40.793Z,0.00
2018-03-06T02:55:40.753Z,0.00
2018-03-06T02:56:40.738Z,0.00
2018-03-06T02:57:40.718Z,0.00
2018-03-06T02:58:40.704Z,0.00
2018-03-06T02:59:40.682Z,0.00
2018-03-06T03:00:40.656Z,0.00
2018-03-06T03:01:40.628Z,0.00
2018-03-06T03:02:40.618Z,0.00
2018-03-06T03:03:40.589Z,0.00
2018-03-06T03:04:40.566Z,0.00
2018-03-06T03:05:40.601Z,0.00
2018-03-06T03:06:40.525Z,0.00
2018-03-06T03:07:40.512Z,0.00
2018-03-06T03:08:40.491Z,0.00
2018-03-06T03:09:40.472Z,0.00
2018-03-06T03:10:40.452Z,0.00
2018-03-06T03:11:40.423Z,0.00
2018-03-06T03:12:40.395Z,0.00
2018-03-06T03:13:40.379Z,0.00
2018-03-06T03:14:40.350Z,0.00
2018-03-06T03:15:40.330Z,0.00
2018-03-06T03:16:40.310Z,0.00
2018-03-06T03:17:40.771Z,0.00
2018-03-06T03:18:40.284Z,0.00
2018-03-06T03:19:40.240Z,0.00
2018-03-06T03:20:40.233Z,0.00
2018-03-06T03:21:40.208Z,0.00
2018-03-06T03:22:40.185Z,0.00
2018-03-06T03:23:40.156Z,0.00
2018-03-06T03:24:40.137Z,0.00
2018-03-06T03:25:40.131Z,0.00
2018-03-06T03:26:40.090Z,0.00
2018-03-06T03:27:40.071Z,0.00
2018-03-06T03:28:40.055Z,0.00
2018-03-06T03:29:40.028Z,0.00
2018-03-06T03:30:40.005Z,0.00
2018-03-06T03:31:40.002Z,0.00
2018-03-06T03:32:39.962Z,0.00
2018-03-06T03:33:39.940Z,0.00
2018-03-06T03:34:39.922Z,0.00
2018-03-06T03:35:39.914Z,0.00
2018-03-06T03:36:39.881Z,0.00
2018-03-06T03:37:39.853Z,0.00
2018-03-06T03:38:39.849Z,0.00
2018-03-06T03:39:39.820Z,0.00
2018-03-06T03:40:39.799Z,0.00
2018-03-06T03:41:39.782Z,0.00
2018-03-06T03:42:39.750Z,0.00
2018-03-06T03:43:39.728Z,0.00
2018-03-06T03:44:39.708Z,0.00
2018-03-06T03:45:39.688Z,0.00
2018-03-06T03:46:39.661Z,0.00
2018-03-06T03:47:39.640Z,0.00
2018-03-06T03:48:39.637Z,0.00
2018-03-06T03:49:39.598Z,0.00
2018-03-06T03:50:39.589Z,0.00
2018-03-06T03:51:39.559Z,0.00
2018-03-06T03:52:39.538Z,0.00
2018-03-06T03:53:39.515Z,0.00
2018-03-06T03:54:39.493Z,0.00
2018-03-06T03:55:39.474Z,0.00
2018-03-06T03:56:39.448Z,0.00
2018-03-06T03:57:39.436Z,0.00
2018-03-06T03:58:39.406Z,0.00
2018-03-06T03:59:39.383Z,0.00
2018-03-06T04:00:39.377Z,0.00
2018-03-06T04:01:39.335Z,0.00
2018-03-06T04:02:39.368Z,0.00
2018-03-06T04:03:39.306Z,0.00
2018-03-06T04:04:39.279Z,0.00
2018-03-06T04:05:39.247Z,0.00
2018-03-06T04:06:39.233Z,0.00
2018-03-06T04:07:39.210Z,0.00
2018-03-06T04:08:39.262Z,0.00
2018-03-06T04:09:39.163Z,0.00
2018-03-06T04:10:39.150Z,0.00
2018-03-06T04:11:39.151Z,0.00
2018-03-06T04:12:39.095Z,0.00
2018-03-06T04:13:39.079Z,0.00
2018-03-06T04:14:39.056Z,0.00
2018-03-06T04:15:39.069Z,0.00
2018-03-06T04:16:39.018Z,0.00
2018-03-06T04:17:38.996Z,0.00
2018-03-06T04:18:38.973Z,0.00
2018-03-06T04:19:38.954Z,0.00
2018-03-06T04:20:38.929Z,0.00
2018-03-06T04:21:38.911Z,0.00
2018-03-06T04:22:38.885Z,0.00
2018-03-06T04:23:38.860Z,0.00
2018-03-06T04:24:38.837Z,0.00
2018-03-06T04:25:38.818Z,0.00
2018-03-06T04:26:38.799Z,0.00
2018-03-06T04:27:38.776Z,0.00
2018-03-06T04:28:38.767Z,0.00
2018-03-06T04:29:38.738Z,0.00
2018-03-06T04:30:38.713Z,0.00
2018-03-06T04:31:38.694Z,0.00
2018-03-06T04:32:38.697Z,0.00
2018-03-06T04:33:38.649Z,0.00
2018-03-06T04:34:38.629Z,0.00
2018-03-06T04:35:38.604Z,0.00
2018-03-06T04:36:38.585Z,0.00
2018-03-06T04:37:38.562Z,0.00
2018-03-06T04:38:38.537Z,0.00
2018-03-06T04:39:38.528Z,0.00
2018-03-06T04:40:38.502Z,0.00
2018-03-06T04:41:38.476Z,0.00
2018-03-06T04:42:38.450Z,0.00
2018-03-06T04:43:38.434Z,0.00
2018-03-06T04:44:38.418Z,0.00
2018-03-06T04:45:38.434Z,0.00
2018-03-06T04:46:39.279Z,0.00
2018-03-06T04:47:38.345Z,0.00
2018-03-06T04:48:38.320Z,0.00
2018-03-06T04:49:38.298Z,0.00
2018-03-06T04:50:38.282Z,0.00
2018-03-06T04:51:38.262Z,0.00
2018-03-06T04:52:38.240Z,0.00
2018-03-06T04:53:38.218Z,0.00
2018-03-06T04:54:38.199Z,0.00
2018-03-06T04:55:38.180Z,0.00
2018-03-06T04:56:38.148Z,0.00
2018-03-06T04:57:38.138Z,0.00
2018-03-06T04:58:38.107Z,0.00
2018-03-06T04:59:38.091Z,0.00
2018-03-06T05:00:38.062Z,0.00
2018-03-06T05:01:38.047Z,0.00
2018-03-06T05:02:38.028Z,0.00
2018-03-06T05:03:38.004Z,0.00
2018-03-06T05:04:37.991Z,0.00
2018-03-06T05:05:37.963Z,0.00
2018-03-06T05:06:37.948Z,0.00
2018-03-06T05:07:37.935Z,0.00
2018-03-06T05:08:37.898Z,0.00
2018-03-06T05:09:37.901Z,0.00
2018-03-06T05:10:37.850Z,0.00
2018-03-06T05:11:37.852Z,0.00
2018-03-06T05:12:37.841Z,0.00
2018-03-06T05:13:37.782Z,0.00
2018-03-06T05:14:37.767Z,0.00
2018-03-06T05:15:37.814Z,0.00
2018-03-06T05:16:37.722Z,0.00
2018-03-06T05:17:37.700Z,0.00
2018-03-06T05:18:37.681Z,0.00
2018-03-06T05:19:37.659Z,0.00
2018-03-06T05:20:37.637Z,0.00
2018-03-06T05:21:37.642Z,0.00
2018-03-06T05:22:37.645Z,0.00
2018-03-06T05:23:37.569Z,0.00
2018-03-06T05:24:37.575Z,0.00
2018-03-06T05:25:37.556Z,0.00
2018-03-06T05:26:37.531Z,0.00
2018-03-06T05:27:37.492Z,0.00
2018-03-06T05:28:37.466Z,0.00
2018-03-06T05:29:37.459Z,0.00
2018-03-06T05:30:37.425Z,4.00
2018-03-06T05:31:37.399Z,4.00
2018-03-06T05:32:37.382Z,4.00
2018-03-06T05:33:37.364Z,4.00
2018-03-06T05:34:37.344Z,4.00
2018-03-06T05:35:37.325Z,8.00
2018-03-06T05:36:37.295Z,8.00
2018-03-06T05:37:37.396Z,8.00
2018-03-06T05:38:37.270Z,12.00
2018-03-06T05:39:37.228Z,16.00
2018-03-06T05:40:37.212Z,16.00
2018-03-06T05:41:37.192Z,20.00
2018-03-06T05:42:37.179Z,24.00
2018-03-06T05:43:37.141Z,24.00
2018-03-06T05:44:37.126Z,28.00
2018-03-06T05:45:37.100Z,36.00
2018-03-06T05:46:37.077Z,40.00
2018-03-06T05:47:37.052Z,48.00
2018-03-06T05:48:37.036Z,52.00
2018-03-06T05:49:37.032Z,64.00
2018-03-06T05:50:36.988Z,72.00
2018-03-06T05:51:36.968Z,80.00
2018-03-06T05:52:36.958Z,88.00
2018-03-06T05:53:36.929Z,96.00
2018-03-06T05:54:36.901Z,108.00
2018-03-06T05:55:36.888Z,120.00
2018-03-06T05:56:36.859Z,128.00
2018-03-06T05:57:36.840Z,140.00
2018-03-06T05:58:36.815Z,156.00
2018-03-06T05:59:36.798Z,168.00
2018-03-06T06:00:36.779Z,184.00
2018-03-06T06:01:36.764Z,200.00
2018-03-06T06:02:36.738Z,216.00
2018-03-06T06:03:36.716Z,232.00
2018-03-06T06:04:36.701Z,248.00
2018-03-06T06:05:36.667Z,268.00
2018-03-06T06:06:36.664Z,292.00
2018-03-06T06:07:36.640Z,312.00
2018-03-06T06:08:36.596Z,336.00
2018-03-06T06:09:36.576Z,360.00
2018-03-06T06:10:36.565Z,388.00
2018-03-06T06:11:36.539Z,416.00
2018-03-06T06:12:36.561Z,444.00
2018-03-06T06:13:36.502Z,472.00
2018-03-06T06:14:36.473Z,504.00
2018-03-06T06:15:36.470Z,540.00
2018-03-06T06:16:36.431Z,564.00
2018-03-06T06:17:36.412Z,592.00
2018-03-06T06:18:36.383Z,616.00
2018-03-06T06:19:36.364Z,648.00
2018-03-06T06:20:36.348Z,684.00
2018-03-06T06:21:36.329Z,724.00
2018-03-06T06:22:36.362Z,756.00
2018-03-06T06:23:36.293Z,784.00
2018-03-06T06:24:36.277Z,816.00
2018-03-06T06:25:36.237Z,848.00
2018-03-06T06:26:36.208Z,880.00
2018-03-06T06:27:36.198Z,908.00
2018-03-06T06:28:36.181Z,940.00
2018-03-06T06:29:36.150Z,972.00
2018-03-06T06:30:36.124Z,1008.00
2018-03-06T06:31:36.122Z,1040.00
2018-03-06T06:32:36.087Z,1076.00
2018-03-06T06:33:36.062Z,1112.00
2018-03-06T06:34:36.045Z,1148.00
2018-03-06T06:35:36.023Z,1184.00
2018-03-06T06:36:36.000Z,1220.00
2018-03-06T06:37:35.977Z,1264.00
2018-03-06T06:38:35.953Z,1308.00
2018-03-06T06:39:35.958Z,1352.00
2018-03-06T06:40:35.911Z,1392.00
2018-03-06T06:41:35.886Z,1432.00
2018-03-06T06:42:35.887Z,1480.00
2018-03-06T06:43:35.853Z,1528.00
2018-03-06T06:44:35.831Z,1576.00
2018-03-06T06:45:35.812Z,1620.00
2018-03-06T06:46:35.806Z,1664.00
2018-03-06T06:47:35.761Z,1716.00
2018-03-06T06:48:35.742Z,1768.00
2018-03-06T06:49:35.729Z,1816.00
2018-03-06T06:50:35.700Z,1868.00
2018-03-06T06:51:35.689Z,1920.00
2018-03-06T06:52:35.660Z,1968.00
2018-03-06T06:53:35.643Z,2020.00
2018-03-06T06:54:35.617Z,2072.00
2018-03-06T06:55:35.589Z,2128.00
2018-03-06T06:56:35.576Z,2180.00
2018-03-06T06:57:35.562Z,2236.00
2018-03-06T06:58:35.548Z,2296.00
2018-03-06T06:59:35.514Z,2356.00
2018-03-06T07:00:35.542Z,2416.00
2018-03-06T07:01:35.472Z,2484.00
2018-03-06T07:02:35.447Z,2552.00
2018-03-06T07:03:35.414Z,2620.00
2018-03-06T07:04:35.408Z,2676.00
2018-03-06T07:05:35.379Z,2740.00
2018-03-06T07:06:35.351Z,2796.00
2018-03-06T07:07:35.363Z,2856.00
2018-03-06T07:08:35.314Z,2916.00
2018-03-06T07:09:35.296Z,2972.00
2018-03-06T07:10:35.278Z,3028.00
2018-03-06T07:11:35.249Z,3088.00
2018-03-06T07:12:35.283Z,3144.00
2018-03-06T07:13:35.233Z,3192.00
2018-03-06T07:14:35.195Z,3240.00
2018-03-06T07:15:35.173Z,3276.00
2018-03-06T07:16:35.158Z,3304.00
2018-03-06T07:17:35.121Z,3360.00
2018-03-06T07:18:35.101Z,3412.00
2018-03-06T07:19:35.085Z,3464.00
2018-03-06T07:20:35.063Z,3496.00
2018-03-06T07:21:35.047Z,3556.00
2018-03-06T07:22:35.016Z,3604.00
2018-03-06T07:23:35.009Z,3656.00
2018-03-06T07:24:34.973Z,3708.00
2018-03-06T07:25:34.952Z,3764.00
2018-03-06T07:26:34.929Z,3828.00
2018-03-06T07:27:34.915Z,3884.00
2018-03-06T07:28:34.899Z,3944.00
2018-03-06T07:29:34.880Z,4012.00
2018-03-06T07:30:34.864Z,4068.00
2018-03-06T07:31:34.831Z,4136.00
2018-03-06T07:32:34.803Z,4208.00
2018-03-06T07:33:34.793Z,4284.00
2018-03-06T07:34:34.771Z,4368.00
2018-03-06T07:35:34.751Z,4500.00
2018-03-06T07:36:34.716Z,4620.00
2018-03-06T07:37:34.703Z,4748.00
2018-03-06T07:38:34.680Z,4884.00
2018-03-06T07:39:34.659Z,5036.00
2018-03-06T07:40:34.640Z,5192.00
2018-03-06T07:41:34.667Z,5348.00
2018-03-06T07:42:34.598Z,5504.00
2018-03-06T07:43:34.568Z,5656.00
2018-03-06T07:44:34.560Z,5792.00
2018-03-06T07:45:34.535Z,5928.00
2018-03-06T07:46:34.521Z,6056.00
2018-03-06T07:47:34.492Z,6184.00
2018-03-06T07:48:34.502Z,6296.00
2018-03-06T07:49:34.444Z,6408.00
2018-03-06T07:50:34.425Z,6516.00
2018-03-06T07:51:34.428Z,6612.00
2018-03-06T07:52:34.402Z,6696.00
2018-03-06T07:53:34.374Z,6728.00
2018-03-06T07:54:34.389Z,6880.00
2018-03-06T07:55:34.364Z,6980.00
2018-03-06T07:56:34.308Z,7072.00
2018-03-06T07:57:34.292Z,7156.00
2018-03-06T07:58:34.264Z,7264.00
2018-03-06T07:59:34.299Z,7384.00
2018-03-06T08:00:34.224Z,7480.00
2018-03-06T08:01:34.199Z,7592.00
2018-03-06T08:02:34.178Z,7684.00
2018-03-06T08:03:34.168Z,7760.00
2018-03-06T08:04:34.164Z,7892.00
2018-03-06T08:05:34.118Z,7984.00
2018-03-06T08:06:34.113Z,8068.00
2018-03-06T08:07:34.082Z,8164.00
2018-03-06T08:08:34.074Z,8248.00
2018-03-06T08:09:34.073Z,8328.00
2018-03-06T08:10:34.016Z,8400.00
2018-03-06T08:11:34.004Z,8480.00
2018-03-06T08:12:33.993Z,8552.00
2018-03-06T08:13:33.968Z,8620.00
2018-03-06T08:14:33.967Z,8696.00
2018-03-06T08:15:33.930Z,8756.00
2018-03-06T08:16:33.911Z,8836.00
2018-03-06T08:17:33.891Z,8888.00
2018-03-06T08:18:33.866Z,8944.00
2018-03-06T08:19:33.863Z,9000.00
2018-03-06T08:20:33.865Z,9056.00
2018-03-06T08:21:33.805Z,9116.00
2018-03-06T08:22:33.780Z,9176.00
2018-03-06T08:23:33.764Z,9232.00
2018-03-06T08:24:33.738Z,9280.00
2018-03-06T08:25:33.726Z,9340.00
2018-03-06T08:26:33.700Z,9404.00
2018-03-06T08:27:33.680Z,9472.00
2018-03-06T08:28:33.680Z,9544.00
2018-03-06T08:29:33.636Z,9616.00
2018-03-06T08:30:33.620Z,9704.00
2018-03-06T08:31:33.601Z,9772.00
2018-03-06T08:32:33.578Z,9856.00
2018-03-06T08:33:33.562Z,9936.00
2018-03-06T08:34:33.546Z,10000.00
2018-03-06T08:35:33.521Z,10056.00
2018-03-06T08:36:33.506Z,10124.00
2018-03-06T08:37:33.483Z,10180.00
2018-03-06T08:38:33.464Z,10256.00
2018-03-06T08:39:33.441Z,10328.00
2018-03-06T08:40:33.422Z,10388.00
2018-03-06T08:41:33.399Z,10452.00
2018-03-06T08:42:33.384Z,10520.00
2018-03-06T08:43:33.367Z,10588.00
2018-03-06T08:44:33.345Z,10652.00
2018-03-06T08:45:33.320Z,10724.00
2018-03-06T08:46:33.301Z,10792.00
2018-03-06T08:47:33.289Z,10880.00
2018-03-06T08:48:33.273Z,10980.00
2018-03-06T08:49:33.244Z,11084.00
2018-03-06T08:50:33.222Z,11172.00
2018-03-06T08:51:33.243Z,11264.00
2018-03-06T08:52:33.182Z,11356.00
2018-03-06T08:53:33.174Z,11444.00
2018-03-06T08:54:33.145Z,11504.00
2018-03-06T08:55:33.135Z,11568.00
2018-03-06T08:56:33.112Z,11660.00
2018-03-06T08:57:33.086Z,11792.00
2018-03-06T08:58:33.079Z,11860.00
2018-03-06T08:59:33.043Z,11876.00
2018-03-06T09:00:33.025Z,11920.00
2018-03-06T09:01:33.012Z,11888.00
2018-03-06T09:02:32.990Z,11832.00
2018-03-06T09:03:33.009Z,11784.00
2018-03-06T09:04:32.954Z,11748.00
2018-03-06T09:05:32.983Z,11716.00
2018-03-06T09:06:32.920Z,11716.00
2018-03-06T09:07:32.901Z,11700.00
2018-03-06T09:08:32.886Z,11476.00
2018-03-06T09:09:32.866Z,11648.00
2018-03-06T09:10:32.856Z,11580.00
2018-03-06T09:11:32.825Z,11640.00
2018-03-06T09:12:32.806Z,11708.00
2018-03-06T09:13:32.789Z,11796.00
2018-03-06T09:14:32.770Z,11908.00
2018-03-06T09:15:32.751Z,12020.00
2018-03-06T09:16:32.726Z,12124.00
2018-03-06T09:17:32.719Z,12160.00
2018-03-06T09:18:32.728Z,12248.00
2018-03-06T09:19:32.676Z,12308.00
2018-03-06T09:20:32.660Z,12388.00
2018-03-06T09:21:32.645Z,12536.00
2018-03-06T09:22:32.620Z,12692.00
2018-03-06T09:23:32.600Z,12860.00
2018-03-06T09:24:32.581Z,12988.00
2018-03-06T09:25:32.565Z,13060.00
2018-03-06T09:26:32.545Z,13128.00
2018-03-06T09:27:32.542Z,13144.00
2018-03-06T09:28:32.509Z,13116.00
2018-03-06T09:29:32.506Z,13044.00
2018-03-06T09:30:32.474Z,12928.00
2018-03-06T09:31:32.448Z,13084.00
2018-03-06T09:32:32.437Z,13104.00
2018-03-06T09:33:32.456Z,13120.00
2018-03-06T09:34:32.403Z,13200.00
2018-03-06T09:35:32.384Z,13156.00
2018-03-06T09:36:32.356Z,13152.00
2018-03-06T09:37:32.342Z,13156.00
2018-03-06T09:38:32.330Z,13232.00
2018-03-06T09:39:32.311Z,13244.00
2018-03-06T09:40:32.297Z,13168.00
2018-03-06T09:41:32.268Z,13140.00
2018-03-06T09:42:32.357Z,13264.00
2018-03-06T09:43:32.237Z,13260.00
2018-03-06T09:44:32.221Z,13340.00
2018-03-06T09:45:32.783Z,13468.00
2018-03-06T09:46:32.186Z,13612.00
2018-03-06T09:47:32.207Z,13884.00
2018-03-06T09:48:32.154Z,14380.00
2018-03-06T09:49:32.128Z,14776.00
2018-03-06T09:50:32.132Z,15224.00
2018-03-06T09:51:32.089Z,14984.00
2018-03-06T09:52:32.076Z,14484.00
2018-03-06T09:53:32.057Z,14784.00
2018-03-06T09:54:32.060Z,16268.00
2018-03-06T09:55:32.029Z,17632.00
2018-03-06T09:56:32.009Z,18688.00
2018-03-06T09:57:32.067Z,18560.00
2018-03-06T09:58:31.977Z,17920.00
2018-03-06T09:59:31.959Z,18400.00
2018-03-06T10:00:31.945Z,19520.00
2018-03-06T10:01:31.929Z,20128.00
2018-03-06T10:02:31.910Z,20928.00
2018-03-06T10:03:31.902Z,21248.00
2018-03-06T10:04:31.877Z,21312.00
2018-03-06T10:05:31.880Z,21344.00
2018-03-06T10:06:31.845Z,21344.00
2018-03-06T10:07:31.829Z,21184.00
2018-03-06T10:08:31.806Z,20576.00
2018-03-06T10:09:31.804Z,20352.00
2018-03-06T10:10:31.777Z,20480.00
2018-03-06T10:11:31.771Z,20416.00
2018-03-06T10:12:31.749Z,20640.00
2018-03-06T10:13:31.736Z,20928.00
2018-03-06T10:14:31.780Z,21120.00
2018-03-06T10:15:31.702Z,21536.00
2018-03-06T10:16:31.705Z,22240.00
2018-03-06T10:17:31.676Z,22464.00
2018-03-06T10:18:31.661Z,22208.00
2018-03-06T10:19:31.652Z,22208.00
2018-03-06T10:20:31.636Z,22656.00
2018-03-06T10:21:31.616Z,23232.00
2018-03-06T10:22:31.635Z,23104.00
2018-03-06T10:23:31.594Z,23552.00
2018-03-06T10:24:31.572Z,23616.00
2018-03-06T10:25:31.566Z,23584.00
2018-03-06T10:26:31.552Z,23712.00
2018-03-06T10:27:31.543Z,24064.00
2018-03-06T10:28:31.530Z,24096.00
2018-03-06T10:29:31.527Z,23872.00
2018-03-06T10:30:31.498Z,24320.00
2018-03-06T10:31:31.479Z,25504.00
2018-03-06T10:32:31.469Z,25792.00
2018-03-06T10:33:31.473Z,25280.00
2018-03-06T10:34:31.454Z,23040.00
2018-03-06T10:35:31.428Z,21760.00
2018-03-06T10:36:31.471Z,21824.00
2018-03-06T10:37:31.402Z,22048.00
2018-03-06T10:38:31.405Z,22304.00
2018-03-06T10:39:31.395Z,22784.00
2018-03-06T10:40:31.373Z,23776.00
2018-03-06T10:41:31.351Z,25184.00
2018-03-06T10:42:31.367Z,26240.00
2018-03-06T10:43:31.326Z,26720.00
2018-03-06T10:44:31.313Z,27072.00
2018-03-06T10:45:31.303Z,27680.00
2018-03-06T10:46:31.307Z,27232.00
2018-03-06T10:47:31.288Z,27872.00
2018-03-06T10:48:31.272Z,27456.00
2018-03-06T10:49:31.255Z,26624.00
2018-03-06T10:50:31.236Z,27040.00
2018-03-06T10:51:31.237Z,25888.00
2018-03-06T10:52:31.217Z,24672.00
2018-03-06T10:53:31.206Z,25856.00
2018-03-06T10:54:31.217Z,26464.00
2018-03-06T10:55:31.184Z,26176.00
2018-03-06T10:56:31.169Z,25856.00
2018-03-06T10:57:31.163Z,27296.00
2018-03-06T10:58:31.189Z,27296.00
2018-03-06T10:59:31.134Z,26944.00
2018-03-06T11:00:31.131Z,26400.00
2018-03-06T11:01:31.112Z,26048.00
2018-03-06T11:02:31.103Z,25824.00
2018-03-06T11:03:31.093Z,24704.00
2018-03-06T11:04:31.081Z,24064.00
2018-03-06T11:05:31.061Z,24128.00
2018-03-06T11:06:31.056Z,24448.00
2018-03-06T11:07:31.045Z,25312.00
2018-03-06T11:08:31.040Z,25504.00
2018-03-06T11:09:31.029Z,24864.00
2018-03-06T11:10:31.013Z,22848.00
2018-03-06T11:11:30.994Z,23296.00
2018-03-06T11:12:30.987Z,22336.00
2018-03-06T11:13:30.978Z,22880.00
2018-03-06T11:14:30.965Z,22912.00
2018-03-06T11:15:30.969Z,21248.00
2018-03-06T11:16:30.944Z,21600.00
2018-03-06T11:17:30.933Z,20864.00
2018-03-06T11:18:30.928Z,21312.00
2018-03-06T11:19:30.908Z,21056.00
2018-03-06T11:20:30.889Z,20864.00
2018-03-06T11:21:30.883Z,20320.00
2018-03-06T11:22:30.873Z,20160.00
2018-03-06T11:23:30.876Z,20192.00
2018-03-06T11:24:30.848Z,20224.00
2018-03-06T11:25:30.860Z,19808.00
2018-03-06T11:26:30.825Z,19744.00
2018-03-06T11:27:30.812Z,19424.00
2018-03-06T11:28:30.801Z,19360.00
2018-03-06T11:29:30.795Z,19296.00
2018-03-06T11:30:30.778Z,19104.00
2018-03-06T11:31:30.761Z,19264.00
2018-03-06T11:32:30.750Z,19200.00
2018-03-06T11:33:30.745Z,19072.00
2018-03-06T11:34:30.726Z,18976.00
2018-03-06T11:35:30.720Z,18944.00
2018-03-06T11:36:30.703Z,18880.00
2018-03-06T11:37:30.708Z,18816.00
2018-03-06T11:38:30.679Z,18848.00
2018-03-06T11:39:30.660Z,18656.00
2018-03-06T11:40:30.654Z,18496.00
2018-03-06T11:41:30.641Z,18368.00
2018-03-06T11:42:30.612Z,18400.00
2018-03-06T11:43:30.612Z,18432.00
2018-03-06T11:44:30.610Z,18528.00
2018-03-06T11:45:30.597Z,18464.00
2018-03-06T11:46:30.597Z,18432.00
2018-03-06T11:47:30.562Z,18368.00
2018-03-06T11:48:30.568Z,18336.00
2018-03-06T11:49:30.551Z,18144.00
2018-03-06T11:50:30.521Z,17984.00
2018-03-06T11:51:30.515Z,17888.00
2018-03-06T11:52:30.597Z,17792.00
2018-03-06T11:53:30.489Z,17696.00
2018-03-06T11:54:30.480Z,17696.00
2018-03-06T11:55:30.479Z,17568.00
2018-03-06T11:56:30.444Z,17632.00
2018-03-06T11:57:30.450Z,17728.00
2018-03-06T11:58:30.418Z,17760.00
2018-03-06T11:59:30.432Z,17728.00
2018-03-06T12:00:30.392Z,17792.00
2018-03-06T12:01:30.389Z,17824.00
2018-03-06T12:02:30.374Z,17824.00
2018-03-06T12:03:30.368Z,17760.00
2018-03-06T12:04:30.348Z,17824.00
2018-03-06T12:05:30.332Z,17696.00
2018-03-06T12:06:30.323Z,17696.00
2018-03-06T12:07:30.326Z,17792.00
2018-03-06T12:08:30.303Z,17792.00
2018-03-06T12:09:30.280Z,17760.00
2018-03-06T12:10:30.268Z,17760.00
2018-03-06T12:11:30.274Z,17728.00
2018-03-06T12:12:30.258Z,17600.00
2018-03-06T12:13:30.232Z,17600.00
2018-03-06T12:14:30.223Z,17504.00
2018-03-06T12:15:30.278Z,17536.00
2018-03-06T12:16:30.190Z,17408.00
2018-03-06T12:17:30.184Z,17696.00
2018-03-06T12:18:30.184Z,17920.00
2018-03-06T12:19:30.168Z,18048.00
2018-03-06T12:20:30.145Z,18112.00
2018-03-06T12:21:30.154Z,18304.00
2018-03-06T12:22:30.120Z,18432.00
2018-03-06T12:23:30.106Z,18080.00
2018-03-06T12:24:30.096Z,18208.00
2018-03-06T12:25:30.090Z,18112.00
2018-03-06T12:26:30.113Z,17920.00
2018-03-06T12:27:30.063Z,17984.00
2018-03-06T12:28:30.057Z,18048.00
2018-03-06T12:29:30.043Z,18144.00
2018-03-06T12:30:30.027Z,18240.00
2018-03-06T12:31:30.011Z,18176.00